Time;durP1;ratioP1;P1;durP2;ratioP2;P2;SDS_P1;SDS_P2;PMS_P1;PMS_P2;Temp;Humidity;BMP_temperature;BMP_pressure;BME280_temperature;BME280_humidity;BME280_pressure;Samples;Min_cycle;Max_cycle;Signal;HPM_P1;HPM_P2
2021/10/21 00:14:02;;;;;;;5.80;2.23;;;17.60;83.40;;;;;;5079174;28;20873;-84
2021/10/21 00:16:30;;;;;;;5.37;3.13;;;17.60;83.90;;;;;;5090386;28;20424;-83
2021/10/21 00:18:57;;;;;;;5.70;2.70;;;17.60;85.90;;;;;;5098251;28;20459;-82
2021/10/21 00:21:24;;;;;;;3.60;3.20;;;17.60;87.40;;;;;;5077789;28;20480;-84
2021/10/21 00:23:51;;;;;;;3.13;2.40;;;17.60;88.50;;;;;;5078556;28;20803;-84
2021/10/21 00:26:17;;;;;;;2.70;2.23;;;17.60;89.10;;;;;;5080240;28;20445;-82
2021/10/21 00:37:36;;;;;;;4.30;2.90;;;17.20;92.30;;;;;;5093509;28;20472;-68
2021/10/21 00:40:04;;;;;;;11.43;3.40;;;17.10;92.80;;;;;;5094520;28;20468;-69
2021/10/21 00:42:31;;;;;;;9.70;3.70;;;17.00;93.10;;;;;;5094732;28;21007;-70
2021/10/21 00:44:58;;;;;;;7.90;3.53;;;17.00;93.10;;;;;;5095054;28;20454;-70
2021/10/21 00:47:24;;;;;;;3.70;2.80;;;17.00;93.50;;;;;;5095064;28;20451;-70
2021/10/21 00:49:51;;;;;;;2.70;2.00;;;16.90;93.30;;;;;;5094801;28;20468;-70
2021/10/21 00:52:18;;;;;;;3.10;2.33;;;16.90;93.50;;;;;;5094858;28;20447;-70
2021/10/21 00:54:47;;;;;;;2.37;1.80;;;16.80;93.60;;;;;;5094751;28;20440;-70
2021/10/21 00:57:15;;;;;;;2.63;2.23;;;16.80;93.80;;;;;;5094747;28;20424;-70
2021/10/21 00:59:44;;;;;;;3.13;2.57;;;16.80;93.70;;;;;;5094337;28;21003;-70
2021/10/21 01:02:11;;;;;;;3.30;2.33;;;16.80;93.80;;;;;;5094594;28;20480;-70
2021/10/21 01:04:38;;;;;;;5.83;2.70;;;16.70;93.80;;;;;;5094584;28;20454;-70
2021/10/21 01:07:05;;;;;;;3.60;1.83;;;16.70;93.60;;;;;;5094526;28;20443;-70
2021/10/21 01:09:34;;;;;;;5.70;1.57;;;16.70;92.20;;;;;;5094484;28;20474;-70
2021/10/21 01:12:04;;;;;;;1.67;1.37;;;16.60;90.10;;;;;;5094474;28;20451;-70
2021/10/21 01:14:31;;;;;;;1.80;1.47;;;16.50;88.70;;;;;;5094450;28;20451;-70
2021/10/21 01:16:58;;;;;;;1.30;0.93;;;16.40;89.20;;;;;;5094362;28;20436;-70
2021/10/21 01:19:26;;;;;;;2.10;1.07;;;16.30;87.80;;;;;;5093992;28;20964;-70
2021/10/21 01:21:55;;;;;;;2.97;1.00;;;16.10;86.30;;;;;;5094272;28;20487;-70
2021/10/21 01:24:23;;;;;;;1.20;1.10;;;16.00;86.70;;;;;;5094268;28;20440;-70
2021/10/21 01:26:53;;;;;;;3.50;0.97;;;16.00;85.70;;;;;;5095169;28;20441;-70
2021/10/21 01:29:23;;;;;;;1.17;0.83;;;15.80;85.10;;;;;;5094217;28;20464;-70
2021/10/21 01:31:52;;;;;;;2.97;1.17;;;15.70;84.10;;;;;;5094277;28;20451;-70
2021/10/21 01:34:19;;;;;;;3.30;1.20;;;15.70;84.60;;;;;;5094255;28;20450;-70
2021/10/21 01:36:51;;;;;;;1.90;1.20;;;15.70;84.40;;;;;;5093693;28;20945;-70
2021/10/21 01:39:19;;;;;;;3.70;1.17;;;15.60;83.70;;;;;;5094086;28;20499;-71
2021/10/21 01:41:46;;;;;;;1.87;1.07;;;15.60;84.80;;;;;;5093955;28;20483;-71
2021/10/21 01:44:13;;;;;;;3.33;1.10;;;15.60;84.80;;;;;;5093688;28;20447;-71
2021/10/21 01:46:40;;;;;;;2.37;1.20;;;15.60;84.80;;;;;;5093983;28;20436;-71
2021/10/21 01:49:07;;;;;;;6.37;1.50;;;15.50;82.60;;;;;;5093583;28;20989;-70
2021/10/21 01:51:34;;;;;;;8.53;1.33;;;15.50;80.20;;;;;;5092988;28;20435;-70
2021/10/21 01:54:01;;;;;;;10.73;1.70;;;15.50;79.30;;;;;;5093749;28;20454;-70
2021/10/21 01:56:29;;;;;;;4.70;1.13;;;15.50;75.90;;;;;;5093798;28;20818;-70
2021/10/21 01:58:56;;;;;;;7.17;1.60;;;15.40;75.30;;;;;;5093738;28;20529;-70
2021/10/21 02:01:23;;;;;;;8.17;1.07;;;15.30;75.80;;;;;;5093348;28;20471;-70
2021/10/21 02:03:49;;;;;;;8.17;1.30;;;15.30;76.10;;;;;;5093706;28;20440;-70
2021/10/21 02:06:17;;;;;;;5.10;0.90;;;15.20;74.60;;;;;;5093676;28;20444;-71
2021/10/21 02:08:43;;;;;;;6.87;1.30;;;15.10;75.20;;;;;;5093743;28;20503;-70
2021/10/21 02:11:10;;;;;;;8.63;1.03;;;15.00;75.00;;;;;;5093292;28;20440;-70
2021/10/21 02:13:38;;;;;;;2.80;1.10;;;14.90;75.70;;;;;;5093383;28;20451;-70
2021/10/21 02:16:05;;;;;;;2.90;1.07;;;14.90;75.00;;;;;;5093583;28;20450;-71
2021/10/21 02:18:32;;;;;;;2.40;1.10;;;14.80;74.90;;;;;;5093968;28;20458;-67
2021/10/21 02:20:58;;;;;;;6.23;1.43;;;14.80;75.40;;;;;;5093473;28;20443;-66
2021/10/21 02:23:25;;;;;;;5.30;1.00;;;14.80;76.10;;;;;;5094059;28;20435;-66
2021/10/21 02:25:52;;;;;;;4.40;1.10;;;14.70;76.00;;;;;;5093441;28;20451;-67
2021/10/21 02:28:19;;;;;;;5.53;1.70;;;14.70;76.50;;;;;;5093028;28;20941;-67
2021/10/21 02:30:47;;;;;;;2.90;0.90;;;14.70;78.00;;;;;;5093111;28;20440;-67
2021/10/21 02:33:14;;;;;;;4.10;0.90;;;14.70;77.40;;;;;;5093428;28;20825;-67
2021/10/21 02:35:42;;;;;;;3.63;1.30;;;14.70;78.00;;;;;;5092963;28;20984;-67
2021/10/21 02:38:09;;;;;;;7.60;1.00;;;14.60;78.00;;;;;;5093050;28;20501;-67
2021/10/21 02:40:36;;;;;;;2.57;1.00;;;14.60;79.20;;;;;;5093272;28;20468;-67
2021/10/21 02:43:03;;;;;;;6.10;1.40;;;14.60;79.00;;;;;;5093391;28;20460;-67
2021/10/21 02:45:30;;;;;;;5.00;1.10;;;14.60;78.70;;;;;;5094079;28;20447;-67
2021/10/21 02:47:58;;;;;;;4.80;1.93;;;14.60;78.30;;;;;;5093237;28;20443;-67
2021/10/21 02:50:25;;;;;;;6.83;1.60;;;14.60;77.90;;;;;;5093157;28;20833;-67
2021/10/21 02:52:52;;;;;;;4.37;1.17;;;14.60;78.30;;;;;;5093195;28;20443;-67
2021/10/21 02:55:19;;;;;;;6.27;1.33;;;14.60;78.60;;;;;;5093220;28;20451;-67
2021/10/21 02:57:45;;;;;;;8.20;1.80;;;14.60;79.70;;;;;;5093110;28;20447;-67
2021/10/21 03:00:12;;;;;;;2.90;0.60;;;14.60;78.90;;;;;;5093052;28;20467;-67
2021/10/21 03:02:40;;;;;;;7.50;1.93;;;14.60;79.10;;;;;;5093288;28;20479;-67
2021/10/21 03:05:09;;;;;;;7.77;1.43;;;14.60;80.00;;;;;;5096920;28;20443;-67
2021/10/21 03:07:36;;;;;;;6.60;1.37;;;14.60;77.80;;;;;;5096934;28;20451;-67
2021/10/21 03:10:03;;;;;;;3.47;1.33;;;14.70;78.70;;;;;;5096785;28;20463;-67
2021/10/21 03:12:29;;;;;;;3.83;1.13;;;14.70;79.30;;;;;;5096448;28;20440;-67
2021/10/21 03:14:56;;;;;;;3.73;1.30;;;14.70;78.70;;;;;;5096734;28;20459;-67
2021/10/21 03:17:23;;;;;;;4.93;0.87;;;14.70;78.00;;;;;;5096654;28;20443;-67
2021/10/21 03:19:50;;;;;;;4.47;0.97;;;14.70;78.20;;;;;;5096617;28;20467;-67
2021/10/21 03:22:18;;;;;;;2.10;1.00;;;14.70;77.40;;;;;;5096528;28;20490;-67
2021/10/21 03:24:44;;;;;;;5.33;0.87;;;14.70;77.30;;;;;;5096295;28;20440;-67
2021/10/21 03:27:11;;;;;;;3.93;0.70;;;14.70;77.80;;;;;;5096534;28;20455;-67
2021/10/21 03:29:38;;;;;;;7.57;1.00;;;14.70;78.00;;;;;;5096104;28;20972;-67
2021/10/21 03:32:05;;;;;;;4.90;1.00;;;14.60;77.30;;;;;;5096870;28;20451;-67
2021/10/21 03:34:33;;;;;;;4.00;1.03;;;14.60;77.30;;;;;;5096173;28;20429;-67
2021/10/21 03:36:59;;;;;;;4.07;1.10;;;14.60;78.20;;;;;;5096038;28;20459;-67
2021/10/21 03:39:28;;;;;;;3.47;0.80;;;14.60;78.80;;;;;;5096255;28;20463;-67
2021/10/21 03:41:54;;;;;;;3.47;1.00;;;14.60;77.80;;;;;;5096256;28;20483;-67
2021/10/21 03:44:21;;;;;;;6.67;1.10;;;14.60;77.20;;;;;;5096234;28;20447;-67
2021/10/21 03:46:48;;;;;;;6.60;1.40;;;14.60;77.10;;;;;;5096115;28;20538;-67
2021/10/21 03:49:15;;;;;;;4.93;1.70;;;14.60;77.60;;;;;;5096077;28;20486;-67
2021/10/21 03:51:41;;;;;;;7.77;0.97;;;14.50;77.60;;;;;;5096068;28;20444;-67
2021/10/21 03:54:12;;;;;;;7.60;2.10;;;14.50;78.30;;;;;;5095950;28;20468;-67
2021/10/21 03:56:42;;;;;;;3.00;0.97;;;14.50;78.00;;;;;;5096015;28;20502;-67
2021/10/21 03:59:08;;;;;;;4.77;0.77;;;14.40;78.00;;;;;;5095861;28;20471;-67
2021/10/21 04:01:35;;;;;;;3.80;1.00;;;14.40;78.40;;;;;;5095785;28;20448;-67
2021/10/21 04:04:02;;;;;;;4.00;0.80;;;14.40;78.80;;;;;;5095903;28;20431;-67
2021/10/21 04:06:29;;;;;;;3.07;0.80;;;14.40;79.00;;;;;;5095496;28;20811;-67
2021/10/21 04:08:55;;;;;;;6.40;1.43;;;14.40;78.70;;;;;;5096021;28;20495;-67
2021/10/21 04:11:22;;;;;;;3.00;0.93;;;14.40;79.10;;;;;;5095626;28;20450;-67
2021/10/21 04:13:50;;;;;;;5.13;1.03;;;14.40;79.30;;;;;;5095385;28;20439;-67
2021/10/21 04:16:17;;;;;;;4.67;1.10;;;14.40;79.60;;;;;;5095028;28;20443;-67
2021/10/21 04:18:44;;;;;;;5.70;1.60;;;14.30;80.00;;;;;;5095409;28;20467;-67
2021/10/21 04:21:12;;;;;;;5.30;0.80;;;14.30;79.50;;;;;;5095253;28;20941;-67
2021/10/21 04:23:38;;;;;;;3.20;0.73;;;14.30;79.60;;;;;;5095375;28;20486;-67
2021/10/21 04:26:05;;;;;;;4.33;0.83;;;14.30;79.30;;;;;;5095343;28;20451;-67
2021/10/21 04:28:32;;;;;;;1.90;0.63;;;14.20;79.90;;;;;;5095233;28;20456;-67
2021/10/21 04:31:01;;;;;;;15.17;1.00;;;14.20;79.80;;;;;;5095288;28;20443;-67
2021/10/21 04:33:27;;;;;;;5.60;0.83;;;14.20;79.70;;;;;;5095244;28;20444;-67
2021/10/21 04:35:54;;;;;;;4.50;0.63;;;14.20;80.10;;;;;;5094909;28;20459;-67
2021/10/21 04:38:21;;;;;;;3.90;0.80;;;14.20;80.40;;;;;;5095006;28;20454;-68
2021/10/21 04:40:48;;;;;;;1.57;0.73;;;14.20;81.30;;;;;;5095060;28;20444;-67
2021/10/21 04:43:15;;;;;;;5.07;0.70;;;14.20;81.30;;;;;;5094892;28;20480;-68
2021/10/21 04:45:42;;;;;;;1.40;0.77;;;14.20;81.80;;;;;;5095076;28;20448;-67
2021/10/21 04:48:10;;;;;;;2.10;0.40;;;14.10;82.20;;;;;;5094915;28;20448;-67
2021/10/21 04:50:36;;;;;;;1.43;0.67;;;14.10;83.30;;;;;;5094845;28;20463;-67
2021/10/21 04:53:04;;;;;;;2.20;0.33;;;14.00;84.10;;;;;;5094851;28;20443;-67
2021/10/21 04:55:34;;;;;;;3.13;0.50;;;14.00;86.70;;;;;;5094786;28;20443;-67
2021/10/21 04:58:02;;;;;;;1.50;0.50;;;13.90;88.60;;;;;;5094540;28;21001;-67
2021/10/21 05:00:29;;;;;;;1.17;0.33;;;13.80;90.00;;;;;;5094619;28;20558;-67
2021/10/21 05:02:55;;;;;;;1.43;0.60;;;13.60;90.70;;;;;;5094205;28;20482;-67
2021/10/21 05:05:24;;;;;;;3.00;0.60;;;13.60;91.30;;;;;;5094289;28;20455;-67
2021/10/21 05:07:51;;;;;;;1.47;0.50;;;13.40;91.40;;;;;;5094544;28;20467;-67
2021/10/21 05:10:17;;;;;;;1.70;0.50;;;13.30;91.60;;;;;;5094372;28;20805;-67
2021/10/21 05:12:44;;;;;;;1.07;0.50;;;13.30;91.70;;;;;;5094558;28;20428;-67
2021/10/21 05:15:11;;;;;;;7.63;0.80;;;13.20;91.80;;;;;;5094499;28;20786;-67
2021/10/21 05:17:38;;;;;;;1.33;0.40;;;13.20;92.10;;;;;;5094347;28;20440;-67
2021/10/21 05:20:05;;;;;;;1.33;0.83;;;13.20;92.00;;;;;;5094254;28;20468;-67
2021/10/21 05:22:33;;;;;;;1.50;0.40;;;13.10;91.80;;;;;;5094259;28;20486;-67
2021/10/21 05:25:00;;;;;;;1.53;0.80;;;13.10;92.00;;;;;;5094249;28;20444;-67
2021/10/21 05:27:27;;;;;;;0.67;0.40;;;13.00;92.10;;;;;;5094044;28;20470;-67
2021/10/21 05:29:54;;;;;;;1.50;0.40;;;13.00;92.10;;;;;;5094064;28;20468;-67
2021/10/21 05:32:20;;;;;;;1.53;0.40;;;13.00;92.30;;;;;;5093939;28;20444;-67
2021/10/21 05:34:47;;;;;;;0.80;0.30;;;13.00;92.40;;;;;;5094074;28;20456;-67
2021/10/21 05:37:14;;;;;;;2.00;0.63;;;12.90;92.50;;;;;;5093661;28;20464;-67
2021/10/21 05:39:43;;;;;;;1.80;0.50;;;12.90;91.90;;;;;;5093637;28;20510;-67
2021/10/21 05:42:09;;;;;;;2.83;0.70;;;12.80;92.20;;;;;;5093888;28;20448;-67
2021/10/21 05:44:36;;;;;;;0.60;0.40;;;12.60;93.10;;;;;;5093909;28;20804;-66
2021/10/21 05:47:04;;;;;;;1.17;0.53;;;12.50;93.90;;;;;;5093968;28;20428;-66
2021/10/21 05:49:31;;;;;;;1.50;0.60;;;12.30;94.70;;;;;;5093490;28;20886;-67
2021/10/21 05:51:57;;;;;;;0.90;0.60;;;12.20;94.90;;;;;;5093533;28;20943;-66
2021/10/21 05:54:24;;;;;;;3.47;0.80;;;12.10;95.40;;;;;;5093787;28;20542;-66
2021/10/21 05:56:53;;;;;;;5.10;1.10;;;12.00;95.60;;;;;;5093837;28;20439;-66
2021/10/21 05:59:19;;;;;;;2.43;0.50;;;11.80;95.60;;;;;;5093681;28;20468;-67
2021/10/21 06:01:46;;;;;;;2.23;0.60;;;11.70;95.80;;;;;;5093783;28;20432;-66
2021/10/21 06:04:13;;;;;;;5.80;1.90;;;11.60;95.50;;;;;;5093623;28;20483;-66
2021/10/21 06:06:39;;;;;;;3.60;0.67;;;11.50;96.40;;;;;;5094434;28;20447;-66
2021/10/21 06:09:06;;;;;;;4.30;0.80;;;11.40;96.90;;;;;;5093534;28;20467;-66
2021/10/21 06:11:35;;;;;;;3.50;1.03;;;11.30;96.50;;;;;;5093308;28;20967;-66
2021/10/21 06:14:05;;;;;;;5.77;1.83;;;11.20;96.80;;;;;;5093571;28;20446;-66
2021/10/21 06:16:32;;;;;;;3.60;1.17;;;11.20;97.00;;;;;;5093589;28;20523;-66
2021/10/21 06:18:59;;;;;;;5.07;0.97;;;11.10;97.20;;;;;;5093454;28;20474;-66
2021/10/21 06:21:28;;;;;;;7.60;0.90;;;11.10;97.10;;;;;;5093493;28;20447;-66
2021/10/21 06:23:55;;;;;;;5.40;1.13;;;11.10;97.30;;;;;;5093354;28;20541;-66
2021/10/21 06:26:21;;;;;;;3.83;1.40;;;11.10;97.50;;;;;;5093499;28;20435;-66
2021/10/21 06:28:51;;;;;;;3.93;1.13;;;11.00;97.60;;;;;;5093999;28;20489;-66
2021/10/21 06:31:20;;;;;;;3.20;1.37;;;11.00;97.80;;;;;;5093216;28;20932;-66
2021/10/21 06:33:47;;;;;;;5.57;1.53;;;11.00;97.80;;;;;;5093444;28;20845;-66
2021/10/21 06:36:15;;;;;;;9.03;1.77;;;11.00;98.30;;;;;;5093079;28;20475;-66
2021/10/21 06:38:43;;;;;;;2.60;1.00;;;11.00;97.90;;;;;;5095597;28;20518;-67
2021/10/21 06:41:10;;;;;;;7.23;1.30;;;11.00;98.20;;;;;;5097392;28;20833;-66
2021/10/21 06:43:37;;;;;;;7.60;1.93;;;11.00;98.60;;;;;;5098172;28;20479;-66
2021/10/21 06:46:05;;;;;;;12.83;1.97;;;11.00;98.70;;;;;;5097054;28;20424;-65
2021/10/21 06:48:33;;;;;;;7.30;1.77;;;11.00;99.00;;;;;;5097294;28;20427;-66
2021/10/21 06:51:00;;;;;;;4.67;1.70;;;11.00;99.00;;;;;;5097237;28;20435;-66
2021/10/21 06:53:27;;;;;;;2.77;1.10;;;10.90;98.30;;;;;;5097147;28;20813;-65
2021/10/21 06:55:54;;;;;;;9.93;1.70;;;10.90;98.30;;;;;;5096846;28;20928;-65
2021/10/21 06:58:21;;;;;;;7.00;1.50;;;10.90;98.10;;;;;;5096970;28;20447;-67
2021/10/21 07:00:48;;;;;;;6.23;1.63;;;10.80;97.80;;;;;;5096780;28;20798;-66
2021/10/21 07:03:15;;;;;;;6.03;1.97;;;10.80;98.20;;;;;;5096996;28;20481;-66
2021/10/21 07:05:43;;;;;;;3.23;1.60;;;10.80;97.50;;;;;;5097059;28;20447;-66
2021/10/21 07:08:11;;;;;;;8.73;2.90;;;10.80;97.70;;;;;;5096906;28;20427;-66
2021/10/21 07:10:38;;;;;;;3.53;1.57;;;10.80;97.40;;;;;;5096777;28;20532;-68
2021/10/21 07:13:05;;;;;;;8.33;1.47;;;10.80;97.20;;;;;;5096855;28;20430;-65
2021/10/21 07:15:32;;;;;;;9.70;2.20;;;10.80;96.90;;;;;;5096423;28;20806;-65
2021/10/21 07:17:59;;;;;;;5.80;1.63;;;10.90;96.50;;;;;;5096666;28;20447;-69
2021/10/21 07:20:26;;;;;;;3.73;1.27;;;10.90;95.60;;;;;;5096533;28;20475;-66
2021/10/21 07:22:54;;;;;;;5.57;1.00;;;10.80;94.80;;;;;;5096601;28;20536;-66
2021/10/21 07:25:22;;;;;;;6.50;1.53;;;10.80;94.50;;;;;;5096589;28;20451;-69
2021/10/21 07:27:49;;;;;;;5.73;1.37;;;10.80;94.30;;;;;;5096198;28;20447;-66
2021/10/21 07:30:17;;;;;;;6.17;1.50;;;10.80;94.10;;;;;;5096457;28;20464;-66
2021/10/21 07:32:44;;;;;;;4.40;1.10;;;10.80;94.50;;;;;;5096120;28;20447;-66
2021/10/21 07:35:11;;;;;;;4.87;1.20;;;10.80;94.70;;;;;;5096101;28;20972;-67
2021/10/21 07:37:38;;;;;;;8.63;1.60;;;10.80;94.10;;;;;;5096448;28;20432;-66
2021/10/21 07:40:09;;;;;;;6.00;1.23;;;10.80;94.50;;;;;;5096280;28;20459;-66
2021/10/21 07:42:36;;;;;;;4.57;1.40;;;10.90;95.00;;;;;;5095987;28;20849;-66
2021/10/21 07:45:03;;;;;;;2.60;1.50;;;10.90;95.00;;;;;;5096273;28;20448;-66
2021/10/21 07:47:30;;;;;;;10.53;2.20;;;10.90;94.90;;;;;;5096198;28;20439;-66
2021/10/21 07:49:57;;;;;;;6.63;1.70;;;11.00;95.20;;;;;;5094682;28;20483;-66
2021/10/21 07:52:24;;;;;;;6.50;1.67;;;11.00;95.20;;;;;;5096123;28;20452;-66
2021/10/21 07:54:51;;;;;;;7.50;1.60;;;11.10;95.10;;;;;;5096034;28;20513;-66
2021/10/21 07:57:20;;;;;;;11.90;2.23;;;11.10;95.20;;;;;;5095983;28;20424;-66
2021/10/21 07:59:47;;;;;;;6.93;1.60;;;11.10;94.90;;;;;;5095862;28;20549;-66
2021/10/21 08:02:15;;;;;;;8.13;2.10;;;11.20;95.00;;;;;;5095529;28;20933;-66
2021/10/21 08:04:42;;;;;;;6.43;1.97;;;11.20;94.50;;;;;;5095461;28;20476;-66
2021/10/21 08:07:09;;;;;;;10.20;2.10;;;11.30;94.10;;;;;;5095532;28;20446;-66
2021/10/21 08:09:36;;;;;;;10.00;2.33;;;11.30;93.80;;;;;;5095641;28;20471;-66
2021/10/21 08:12:07;;;;;;;11.43;2.50;;;11.40;94.30;;;;;;5095784;28;20438;-66
2021/10/21 08:14:36;;;;;;;8.50;2.70;;;11.50;93.90;;;;;;5095370;28;20989;-66
2021/10/21 08:17:02;;;;;;;12.07;2.50;;;11.50;93.80;;;;;;5095388;28;20438;-66
2021/10/21 08:19:30;;;;;;;7.10;2.70;;;11.50;94.10;;;;;;5095494;28;20463;-66
2021/10/21 08:21:57;;;;;;;8.40;2.10;;;11.60;94.20;;;;;;5095491;28;20525;-66
2021/10/21 08:24:24;;;;;;;10.27;3.10;;;11.70;94.00;;;;;;5095397;28;20478;-66
2021/10/21 08:26:52;;;;;;;11.83;2.30;;;11.70;94.00;;;;;;5095374;28;20446;-66
2021/10/21 08:29:21;;;;;;;9.50;2.53;;;11.80;93.80;;;;;;5095363;28;20950;-66
2021/10/21 08:31:51;;;;;;;8.17;2.10;;;11.90;93.50;;;;;;5095270;28;20424;-66
2021/10/21 08:34:17;;;;;;;9.80;3.00;;;12.10;93.40;;;;;;5095283;28;20428;-66
2021/10/21 08:36:44;;;;;;;10.40;2.83;;;12.10;93.20;;;;;;5094909;28;20872;-66
2021/10/21 08:39:11;;;;;;;6.57;2.00;;;12.20;92.80;;;;;;5094767;28;20464;-66
2021/10/21 08:41:39;;;;;;;10.87;2.30;;;12.30;92.70;;;;;;5095110;28;20439;-67
2021/10/21 08:44:05;;;;;;;6.80;2.33;;;12.40;91.90;;;;;;5094993;28;20471;-66
2021/10/21 08:46:33;;;;;;;8.90;2.63;;;12.40;91.60;;;;;;5094810;28;20455;-66
2021/10/21 08:49:02;;;;;;;8.07;2.53;;;12.50;90.80;;;;;;5094569;28;20464;-66
2021/10/21 08:51:31;;;;;;;6.03;2.20;;;12.50;91.10;;;;;;5094972;28;20439;-66
2021/10/21 08:53:58;;;;;;;5.50;2.40;;;12.60;91.10;;;;;;5094914;28;20446;-66
2021/10/21 08:56:26;;;;;;;7.07;2.83;;;12.70;90.70;;;;;;5094865;28;20817;-66
2021/10/21 08:58:54;;;;;;;7.90;2.70;;;12.70;89.70;;;;;;5094722;28;20468;-67
2021/10/21 09:01:31;;;;;;;4.57;1.87;;;12.90;90.20;;;;;;5094029;28;20890;-67
2021/10/21 09:04:16;;;;;;;6.70;2.60;;;12.90;87.10;;;;;;5094349;28;20976;-67
2021/10/21 09:07:55;;;;;;;5.80;2.20;;;13.00;88.00;;;;;;5094402;28;20929;-66
2021/10/21 09:09:43;;;;;;;5.63;2.17;;;13.10;85.70;;;;;;5094066;28;20891;-67
2021/10/21 09:12:12;;;;;;;4.97;2.00;;;13.10;84.20;;;;;;5094504;28;20429;-67
2021/10/21 09:14:41;;;;;;;5.93;2.33;;;13.00;83.20;;;;;;5094472;28;20440;-67
2021/10/21 09:17:09;;;;;;;8.90;2.73;;;12.90;83.80;;;;;;5094204;28;20466;-66
2021/10/21 09:19:38;;;;;;;4.60;1.90;;;12.80;84.60;;;;;;5093997;28;20471;-67
2021/10/21 09:22:06;;;;;;;8.40;2.87;;;12.70;83.90;;;;;;5094429;28;20451;-66
2021/10/21 09:24:38;;;;;;;5.10;1.60;;;12.70;84.70;;;;;;5094008;28;21023;-66
2021/10/21 09:27:08;;;;;;;4.60;2.07;;;12.70;82.70;;;;;;5094299;28;20432;-67
2021/10/21 09:29:36;;;;;;;6.90;1.83;;;12.70;83.90;;;;;;5094114;28;20467;-67
2021/10/21 09:32:09;;;;;;;5.83;1.80;;;12.70;82.40;;;;;;5094051;28;20447;-66
2021/10/21 09:34:45;;;;;;;11.33;2.30;;;12.70;82.20;;;;;;5094101;28;20424;-66
2021/10/21 09:37:14;;;;;;;4.60;1.50;;;12.80;82.60;;;;;;5093894;28;20517;-66
2021/10/21 09:39:47;;;;;;;11.60;2.10;;;12.90;80.90;;;;;;5093722;28;20841;-66
2021/10/21 09:42:15;;;;;;;8.07;1.80;;;12.90;78.70;;;;;;5094061;28;20428;-66
2021/10/21 09:44:42;;;;;;;9.90;2.13;;;13.00;80.00;;;;;;5093649;28;20456;-67
2021/10/21 09:47:22;;;;;;;5.50;1.70;;;13.20;80.40;;;;;;5093964;28;20432;-66
2021/10/21 09:49:56;;;;;;;4.23;1.67;;;13.30;79.00;;;;;;5093868;28;20459;-66
2021/10/21 09:52:24;;;;;;;6.97;1.97;;;13.50;80.10;;;;;;5093971;28;20472;-67
2021/10/21 09:54:53;;;;;;;3.37;1.33;;;13.70;77.30;;;;;;5093982;28;20444;-67
2021/10/21 09:57:29;;;;;;;6.10;1.13;;;13.80;75.60;;;;;;5093732;28;20504;-66
2021/10/21 10:00:05;;;;;;;6.77;1.83;;;13.60;76.10;;;;;;5094320;28;20463;-66
2021/10/21 10:02:33;;;;;;;5.90;1.50;;;13.50;74.90;;;;;;5093763;28;20431;-67
2021/10/21 10:05:04;;;;;;;7.83;1.80;;;13.40;76.30;;;;;;5093354;28;20545;-67
2021/10/21 10:07:33;;;;;;;7.43;1.43;;;13.50;77.90;;;;;;5093776;28;20436;-67
2021/10/21 10:10:00;;;;;;;5.83;2.07;;;13.60;74.90;;;;;;5093491;28;20830;-67
2021/10/21 10:12:30;;;;;;;6.40;1.30;;;13.80;75.50;;;;;;5092944;28;20965;-67
2021/10/21 10:14:57;;;;;;;6.13;1.50;;;13.90;73.20;;;;;;5093747;28;20467;-66
2021/10/21 10:17:27;;;;;;;7.60;1.60;;;14.00;72.80;;;;;;5093623;28;20444;-66
2021/10/21 10:19:54;;;;;;;4.53;1.27;;;14.10;73.00;;;;;;5093517;28;20506;-67
2021/10/21 10:22:25;;;;;;;6.83;1.60;;;14.10;72.80;;;;;;5093499;28;20485;-67
2021/10/21 10:24:53;;;;;;;10.13;2.67;;;14.00;73.30;;;;;;5093485;28;20513;-67
2021/10/21 10:27:23;;;;;;;3.90;1.90;;;13.90;75.70;;;;;;5093437;28;20424;-67
2021/10/21 10:29:50;;;;;;;7.37;1.90;;;13.80;76.10;;;;;;5093068;28;20976;-66
2021/10/21 10:32:40;;;;;;;7.37;1.60;;;13.60;77.50;;;;;;5093439;28;20470;-66
2021/10/21 10:35:09;;;;;;;4.73;1.60;;;13.50;77.90;;;;;;5093191;28;20432;-66
2021/10/21 10:37:59;;;;;;;6.90;2.33;;;13.50;80.40;;;;;;5093050;28;20453;-66
2021/10/21 10:40:57;;;;;;;10.70;3.30;;;13.40;81.30;;;;;;5088394;28;20476;-66
2021/10/21 10:43:38;;;;;;;10.83;1.87;;;13.40;83.20;;;;;;5093407;28;20435;-66
2021/10/21 10:46:05;;;;;;;7.10;1.60;;;13.30;81.70;;;;;;5093345;28;20419;-66
2021/10/21 10:48:53;;;;;;;4.70;1.23;;;13.30;81.80;;;;;;5093222;28;20444;-67
2021/10/21 10:51:21;;;;;;;3.30;1.67;;;13.40;81.30;;;;;;5093273;28;20438;-67
2021/10/21 10:53:51;;;;;;;6.23;1.67;;;13.40;81.90;;;;;;5093248;28;20501;-67
2021/10/21 10:56:41;;;;;;;15.20;2.97;;;13.30;83.20;;;;;;5093268;28;20434;-67
2021/10/21 10:59:19;;;;;;;9.90;2.20;;;13.20;85.50;;;;;;5093117;28;20805;-66
2021/10/21 11:01:46;;;;;;;8.30;2.20;;;13.20;85.70;;;;;;5092827;28;20920;-66
2021/10/21 11:04:35;;;;;;;7.10;2.03;;;13.10;87.20;;;;;;5093051;28;20922;-66
2021/10/21 11:07:06;;;;;;;7.10;1.70;;;13.00;89.90;;;;;;5092653;28;20448;-66
2021/10/21 11:09:34;;;;;;;8.83;1.80;;;12.90;90.80;;;;;;5092994;28;20490;-64
2021/10/21 11:12:02;;;;;;;11.43;3.47;;;12.70;91.60;;;;;;5093076;28;20561;-65
2021/10/21 11:14:39;;;;;;;4.90;0.90;;;12.60;92.90;;;;;;5092952;28;20447;-65
2021/10/21 11:17:06;;;;;;;8.67;1.80;;;12.30;91.60;;;;;;5093050;28;20557;-65
2021/10/21 11:19:57;;;;;;;3.10;0.90;;;12.00;92.90;;;;;;5093833;28;20464;-63
2021/10/21 11:22:40;;;;;;;1.83;0.70;;;11.70;91.00;;;;;;5077431;28;20451;-64
2021/10/21 11:25:13;;;;;;;5.93;0.50;;;11.30;91.80;;;;;;5095633;28;20468;-64
2021/10/21 11:27:42;;;;;;;2.90;0.80;;;10.90;93.20;;;;;;5096600;28;20476;-65
2021/10/21 11:30:11;;;;;;;4.30;0.63;;;10.80;94.30;;;;;;5096449;28;20464;-65
2021/10/21 11:32:40;;;;;;;4.40;0.60;;;10.60;94.70;;;;;;5096189;28;20936;-65
2021/10/21 11:35:13;;;;;;;1.03;0.60;;;10.50;95.40;;;;;;5096955;28;20510;-65
2021/10/21 11:37:46;;;;;;;3.83;0.90;;;10.50;96.10;;;;;;5096027;28;20459;-65
2021/10/21 11:40:23;;;;;;;5.40;1.07;;;10.50;96.80;;;;;;5096220;28;20466;-65
2021/10/21 11:42:54;;;;;;;6.50;1.10;;;10.60;97.20;;;;;;5095992;28;20897;-65
2021/10/21 11:45:25;;;;;;;2.77;1.30;;;10.60;97.40;;;;;;5095864;28;20996;-65
2021/10/21 11:48:00;;;;;;;6.47;1.27;;;10.70;97.60;;;;;;5095965;28;20436;-65
2021/10/21 11:50:33;;;;;;;4.10;1.77;;;10.90;97.50;;;;;;5096120;28;20459;-66
2021/10/21 11:53:00;;;;;;;3.23;1.30;;;10.90;96.70;;;;;;5096112;28;20428;-66
2021/10/21 11:55:29;;;;;;;2.17;1.00;;;11.00;96.40;;;;;;5096069;28;20460;-66
2021/10/21 11:57:56;;;;;;;3.63;1.10;;;11.00;96.20;;;;;;5096012;28;20447;-66
2021/10/21 12:00:25;;;;;;;4.10;1.13;;;11.20;96.80;;;;;;5095894;28;20487;-66
2021/10/21 12:02:53;;;;;;;3.33;0.80;;;11.20;96.00;;;;;;5096369;28;20436;-66
2021/10/21 12:05:31;;;;;;;4.07;1.30;;;11.20;95.80;;;;;;5095821;28;20479;-66
2021/10/21 12:07:59;;;;;;;1.47;0.60;;;11.20;95.60;;;;;;5095541;28;20459;-66
2021/10/21 12:10:33;;;;;;;0.83;0.50;;;11.30;95.50;;;;;;5096734;28;20554;-66
2021/10/21 12:13:02;;;;;;;1.30;0.77;;;11.30;95.30;;;;;;5095724;28;20522;-66
2021/10/21 12:15:31;;;;;;;4.40;0.83;;;11.50;95.30;;;;;;5095735;28;20424;-66
2021/10/21 12:17:58;;;;;;;1.90;0.70;;;11.50;94.60;;;;;;5095352;28;20457;-66
2021/10/21 12:20:41;;;;;;;0.47;0.40;;;11.60;94.30;;;;;;5095534;28;20464;-66
2021/10/21 12:23:19;;;;;;;3.20;0.80;;;11.70;94.10;;;;;;5095535;28;20467;-66
2021/10/21 12:25:51;;;;;;;3.60;0.93;;;11.70;94.30;;;;;;5095155;28;20805;-66
2021/10/21 12:28:18;;;;;;;5.33;1.57;;;11.80;93.60;;;;;;5095485;28;20442;-66
2021/10/21 12:30:45;;;;;;;1.17;0.67;;;11.80;93.10;;;;;;5095370;28;20444;-66
2021/10/21 12:33:13;;;;;;;6.70;0.70;;;11.60;93.00;;;;;;5095380;28;20432;-66
2021/10/21 12:36:02;;;;;;;4.23;1.00;;;11.60;93.70;;;;;;5094666;28;20459;-66
2021/10/21 12:38:30;;;;;;;3.13;1.20;;;11.50;94.60;;;;;;5095143;28;20448;-66
2021/10/21 12:41:06;;;;;;;2.03;0.90;;;11.50;94.70;;;;;;5094837;28;20934;-66
2021/10/21 12:43:34;;;;;;;1.73;0.70;;;11.40;95.10;;;;;;5095171;28;20790;-66
2021/10/21 12:46:05;;;;;;;2.40;0.90;;;11.40;95.30;;;;;;5095029;28;20506;-67
2021/10/21 12:48:34;;;;;;;2.73;0.77;;;11.30;95.30;;;;;;5094593;28;20526;-66
2021/10/21 12:51:10;;;;;;;2.23;0.77;;;11.10;94.30;;;;;;5094960;28;20490;-66
2021/10/21 12:53:37;;;;;;;3.13;0.80;;;11.10;92.70;;;;;;5094959;28;20438;-66
2021/10/21 12:56:22;;;;;;;1.50;0.67;;;10.90;91.40;;;;;;5094899;28;20469;-66
2021/10/21 12:58:59;;;;;;;5.03;1.00;;;10.90;91.80;;;;;;5094841;28;20475;-66
2021/10/21 13:01:26;;;;;;;3.80;1.03;;;10.80;91.70;;;;;;5094750;28;20428;-66
2021/10/21 13:03:52;;;;;;;5.23;0.90;;;10.80;91.90;;;;;;5094735;28;20428;-66
2021/10/21 13:06:19;;;;;;;4.27;1.20;;;10.80;91.80;;;;;;5094548;28;20479;-66
2021/10/21 13:08:51;;;;;;;4.07;1.10;;;10.80;91.80;;;;;;5094805;28;20467;-66
2021/10/21 13:11:20;;;;;;;5.33;1.67;;;10.80;91.90;;;;;;5094617;28;20432;-66
2021/10/21 13:13:52;;;;;;;2.00;0.80;;;10.70;91.20;;;;;;5094643;28;20470;-66
2021/10/21 13:16:19;;;;;;;4.03;1.03;;;10.80;91.20;;;;;;5094539;28;20639;-66